sensor_id;sensor_type;location;lat;lon;timestamp;P1;durP1;ratioP1;P2;durP2;ratioP2
20914;SDS011;10617;52.032;5.298;2024-02-23T00:00:20;3.65;;;1.20;;
20914;SDS011;10617;52.032;5.298;2024-02-23T00:04:21;2.55;;;1.00;;
20914;SDS011;10617;52.032;5.298;2024-02-23T00:08:24;5.57;;;1.20;;
20914;SDS011;10617;52.032;5.298;2024-02-23T00:12:25;4.60;;;1.40;;
20914;SDS011;10617;52.032;5.298;2024-02-23T00:16:27;5.28;;;1.30;;
20914;SDS011;10617;52.032;5.298;2024-02-23T00:20:30;6.80;;;1.75;;
20914;SDS011;10617;52.032;5.298;2024-02-23T00:24:32;6.22;;;1.48;;
20914;SDS011;10617;52.032;5.298;2024-02-23T00:28:34;4.88;;;1.42;;
20914;SDS011;10617;52.032;5.298;2024-02-23T00:32:36;6.80;;;1.67;;
20914;SDS011;10617;52.032;5.298;2024-02-23T00:36:41;5.35;;;1.83;;
20914;SDS011;10617;52.032;5.298;2024-02-23T00:40:43;3.88;;;1.20;;
20914;SDS011;10617;52.032;5.298;2024-02-23T00:44:46;4.82;;;1.10;;
20914;SDS011;10617;52.032;5.298;2024-02-23T00:48:48;4.18;;;1.10;;
20914;SDS011;10617;52.032;5.298;2024-02-23T00:52:50;5.88;;;1.40;;
20914;SDS011;10617;52.032;5.298;2024-02-23T00:56:52;7.20;;;1.58;;
20914;SDS011;10617;52.032;5.298;2024-02-23T01:00:57;5.00;;;1.30;;
20914;SDS011;10617;52.032;5.298;2024-02-23T01:05:00;6.80;;;1.30;;
20914;SDS011;10617;52.032;5.298;2024-02-23T01:09:03;3.72;;;1.20;;
20914;SDS011;10617;52.032;5.298;2024-02-23T01:13:05;3.85;;;1.30;;
20914;SDS011;10617;52.032;5.298;2024-02-23T01:17:07;3.13;;;1.10;;
20914;SDS011;10617;52.032;5.298;2024-02-23T01:21:09;3.80;;;1.50;;
20914;SDS011;10617;52.032;5.298;2024-02-23T01:25:11;6.88;;;1.80;;
20914;SDS011;10617;52.032;5.298;2024-02-23T01:29:13;6.53;;;1.60;;
20914;SDS011;10617;52.032;5.298;2024-02-23T01:33:14;4.53;;;1.60;;
20914;SDS011;10617;52.032;5.298;2024-02-23T01:37:16;6.30;;;1.98;;
20914;SDS011;10617;52.032;5.298;2024-02-23T01:41:18;6.65;;;1.73;;
20914;SDS011;10617;52.032;5.298;2024-02-23T01:45:20;6.32;;;1.70;;
20914;SDS011;10617;52.032;5.298;2024-02-23T01:49:22;7.30;;;1.83;;
20914;SDS011;10617;52.032;5.298;2024-02-23T01:53:30;5.68;;;1.80;;
20914;SDS011;10617;52.032;5.298;2024-02-23T01:57:32;7.15;;;1.77;;
20914;SDS011;10617;52.032;5.298;2024-02-23T02:01:50;5.78;;;1.80;;
20914;SDS011;10617;52.032;5.298;2024-02-23T02:05:52;7.57;;;1.77;;
20914;SDS011;10617;52.032;5.298;2024-02-23T02:09:55;6.55;;;1.88;;
20914;SDS011;10617;52.032;5.298;2024-02-23T02:13:56;6.05;;;1.35;;
20914;SDS011;10617;52.032;5.298;2024-02-23T02:17:58;8.52;;;1.80;;
20914;SDS011;10617;52.032;5.298;2024-02-23T02:22:00;6.78;;;1.75;;
20914;SDS011;10617;52.032;5.298;2024-02-23T02:26:02;6.55;;;1.73;;
20914;SDS011;10617;52.032;5.298;2024-02-23T02:30:04;8.40;;;1.70;;
20914;SDS011;10617;52.032;5.298;2024-02-23T02:34:06;9.55;;;2.13;;
20914;SDS011;10617;52.032;5.298;2024-02-23T02:38:08;7.50;;;1.58;;
20914;SDS011;10617;52.032;5.298;2024-02-23T02:42:11;8.25;;;2.13;;
20914;SDS011;10617;52.032;5.298;2024-02-23T02:46:13;8.65;;;2.20;;
20914;SDS011;10617;52.032;5.298;2024-02-23T02:50:15;8.80;;;1.92;;
20914;SDS011;10617;52.032;5.298;2024-02-23T02:54:17;6.25;;;1.98;;
20914;SDS011;10617;52.032;5.298;2024-02-23T02:58:19;8.27;;;2.08;;
20914;SDS011;10617;52.032;5.298;2024-02-23T03:02:21;5.25;;;1.63;;
20914;SDS011;10617;52.032;5.298;2024-02-23T03:06:23;6.85;;;1.30;;
20914;SDS011;10617;52.032;5.298;2024-02-23T03:10:25;6.53;;;1.50;;
20914;SDS011;10617;52.032;5.298;2024-02-23T03:14:26;4.95;;;1.50;;
20914;SDS011;10617;52.032;5.298;2024-02-23T03:18:28;6.30;;;2.15;;
20914;SDS011;10617;52.032;5.298;2024-02-23T03:22:30;5.45;;;1.60;;
20914;SDS011;10617;52.032;5.298;2024-02-23T03:31:55;7.85;;;1.70;;
20914;SDS011;10617;52.032;5.298;2024-02-23T03:35:57;7.65;;;1.70;;
20914;SDS011;10617;52.032;5.298;2024-02-23T03:39:59;4.57;;;1.65;;
20914;SDS011;10617;52.032;5.298;2024-02-23T03:44:02;4.40;;;1.50;;
20914;SDS011;10617;52.032;5.298;2024-02-23T03:48:04;6.88;;;1.75;;
20914;SDS011;10617;52.032;5.298;2024-02-23T03:52:06;4.82;;;1.30;;
20914;SDS011;10617;52.032;5.298;2024-02-23T03:56:08;8.43;;;1.85;;
20914;SDS011;10617;52.032;5.298;2024-02-23T04:00:10;5.75;;;1.60;;
20914;SDS011;10617;52.032;5.298;2024-02-23T04:04:12;8.40;;;1.92;;
20914;SDS011;10617;52.032;5.298;2024-02-23T04:08:14;4.47;;;1.50;;
20914;SDS011;10617;52.032;5.298;2024-02-23T04:12:16;7.25;;;1.65;;
20914;SDS011;10617;52.032;5.298;2024-02-23T04:16:22;5.40;;;1.70;;
20914;SDS011;10617;52.032;5.298;2024-02-23T04:20:27;6.38;;;2.00;;
20914;SDS011;10617;52.032;5.298;2024-02-23T04:29:14;8.82;;;1.80;;
20914;SDS011;10617;52.032;5.298;2024-02-23T04:33:16;6.35;;;1.55;;
20914;SDS011;10617;52.032;5.298;2024-02-23T04:37:17;4.65;;;1.98;;
20914;SDS011;10617;52.032;5.298;2024-02-23T04:41:20;4.88;;;1.65;;
20914;SDS011;10617;52.032;5.298;2024-02-23T04:45:26;10.48;;;2.38;;
20914;SDS011;10617;52.032;5.298;2024-02-23T04:49:27;5.80;;;1.80;;
20914;SDS011;10617;52.032;5.298;2024-02-23T04:53:31;6.20;;;1.58;;
20914;SDS011;10617;52.032;5.298;2024-02-23T04:57:33;7.15;;;2.15;;
20914;SDS011;10617;52.032;5.298;2024-02-23T05:01:35;7.10;;;2.10;;
20914;SDS011;10617;52.032;5.298;2024-02-23T05:05:38;10.13;;;4.22;;
20914;SDS011;10617;52.032;5.298;2024-02-23T05:09:41;5.75;;;1.90;;
20914;SDS011;10617;52.032;5.298;2024-02-23T05:13:43;4.90;;;1.70;;
20914;SDS011;10617;52.032;5.298;2024-02-23T05:17:44;3.75;;;1.70;;
20914;SDS011;10617;52.032;5.298;2024-02-23T05:21:46;7.35;;;2.00;;
20914;SDS011;10617;52.032;5.298;2024-02-23T05:25:48;5.82;;;1.80;;
20914;SDS011;10617;52.032;5.298;2024-02-23T05:29:50;7.85;;;2.03;;
20914;SDS011;10617;52.032;5.298;2024-02-23T05:33:52;6.82;;;2.33;;
20914;SDS011;10617;52.032;5.298;2024-02-23T05:37:54;4.28;;;2.20;;
20914;SDS011;10617;52.032;5.298;2024-02-23T05:41:56;6.75;;;2.10;;
20914;SDS011;10617;52.032;5.298;2024-02-23T05:46:00;8.60;;;2.60;;
20914;SDS011;10617;52.032;5.298;2024-02-23T05:50:02;8.10;;;3.40;;
20914;SDS011;10617;52.032;5.298;2024-02-23T05:54:04;9.77;;;4.05;;
20914;SDS011;10617;52.032;5.298;2024-02-23T05:58:06;8.07;;;2.45;;
20914;SDS011;10617;52.032;5.298;2024-02-23T06:02:08;4.82;;;2.25;;
20914;SDS011;10617;52.032;5.298;2024-02-23T06:06:10;5.30;;;2.05;;
20914;SDS011;10617;52.032;5.298;2024-02-23T06:10:12;5.95;;;2.20;;
20914;SDS011;10617;52.032;5.298;2024-02-23T06:14:14;6.63;;;2.33;;
20914;SDS011;10617;52.032;5.298;2024-02-23T06:18:16;5.30;;;2.00;;
20914;SDS011;10617;52.032;5.298;2024-02-23T06:22:18;3.83;;;1.90;;
20914;SDS011;10617;52.032;5.298;2024-02-23T06:26:22;6.35;;;1.85;;
20914;SDS011;10617;52.032;5.298;2024-02-23T06:30:24;6.15;;;2.08;;
20914;SDS011;10617;52.032;5.298;2024-02-23T06:34:25;5.70;;;1.92;;
20914;SDS011;10617;52.032;5.298;2024-02-23T06:38:27;10.88;;;3.65;;
20914;SDS011;10617;52.032;5.298;2024-02-23T06:42:30;6.95;;;1.75;;
20914;SDS011;10617;52.032;5.298;2024-02-23T06:46:31;6.30;;;2.47;;
20914;SDS011;10617;52.032;5.298;2024-02-23T06:50:33;9.55;;;2.65;;
20914;SDS011;10617;52.032;5.298;2024-02-23T06:54:36;4.95;;;1.90;;
20914;SDS011;10617;52.032;5.298;2024-02-23T06:58:38;6.43;;;1.92;;
20914;SDS011;10617;52.032;5.298;2024-02-23T07:02:40;5.30;;;1.70;;
20914;SDS011;10617;52.032;5.298;2024-02-23T07:06:42;5.43;;;1.60;;
20914;SDS011;10617;52.032;5.298;2024-02-23T07:10:44;4.85;;;1.67;;
20914;SDS011;10617;52.032;5.298;2024-02-23T07:14:46;5.65;;;1.73;;
20914;SDS011;10617;52.032;5.298;2024-02-23T07:18:48;8.10;;;1.48;;
20914;SDS011;10617;52.032;5.298;2024-02-23T07:22:50;8.90;;;2.10;;
20914;SDS011;10617;52.032;5.298;2024-02-23T07:26:51;6.25;;;1.65;;
20914;SDS011;10617;52.032;5.298;2024-02-23T07:30:53;4.25;;;1.77;;
20914;SDS011;10617;52.032;5.298;2024-02-23T07:34:55;5.95;;;1.75;;
20914;SDS011;10617;52.032;5.298;2024-02-23T07:38:57;7.13;;;1.88;;
20914;SDS011;10617;52.032;5.298;2024-02-23T07:42:59;7.70;;;1.80;;
20914;SDS011;10617;52.032;5.298;2024-02-23T07:47:01;4.38;;;2.10;;
20914;SDS011;10617;52.032;5.298;2024-02-23T07:51:04;7.68;;;1.98;;
20914;SDS011;10617;52.032;5.298;2024-02-23T07:55:06;8.77;;;2.22;;
20914;SDS011;10617;52.032;5.298;2024-02-23T07:59:09;5.78;;;2.78;;
20914;SDS011;10617;52.032;5.298;2024-02-23T08:03:11;5.10;;;1.92;;
20914;SDS011;10617;52.032;5.298;2024-02-23T08:07:13;7.43;;;2.38;;
20914;SDS011;10617;52.032;5.298;2024-02-23T08:11:15;7.57;;;2.50;;
20914;SDS011;10617;52.032;5.298;2024-02-23T08:15:17;6.32;;;1.63;;
20914;SDS011;10617;52.032;5.298;2024-02-23T08:19:19;8.60;;;1.88;;
20914;SDS011;10617;52.032;5.298;2024-02-23T08:23:21;5.40;;;1.67;;
20914;SDS011;10617;52.032;5.298;2024-02-23T08:27:24;6.90;;;2.30;;
20914;SDS011;10617;52.032;5.298;2024-02-23T08:31:26;7.15;;;2.00;;
20914;SDS011;10617;52.032;5.298;2024-02-23T08:35:28;7.13;;;2.15;;
20914;SDS011;10617;52.032;5.298;2024-02-23T08:39:30;7.75;;;1.90;;
20914;SDS011;10617;52.032;5.298;2024-02-23T08:43:31;8.77;;;1.80;;
20914;SDS011;10617;52.032;5.298;2024-02-23T08:47:33;5.88;;;1.77;;
20914;SDS011;10617;52.032;5.298;2024-02-23T08:51:37;6.57;;;1.98;;
20914;SDS011;10617;52.032;5.298;2024-02-23T08:55:39;7.13;;;1.70;;
20914;SDS011;10617;52.032;5.298;2024-02-23T08:59:40;6.63;;;1.55;;
20914;SDS011;10617;52.032;5.298;2024-02-23T09:03:42;5.50;;;1.50;;
20914;SDS011;10617;52.032;5.298;2024-02-23T09:07:44;6.57;;;1.75;;
20914;SDS011;10617;52.032;5.298;2024-02-23T09:11:46;10.32;;;1.83;;
20914;SDS011;10617;52.032;5.298;2024-02-23T09:15:48;8.02;;;1.77;;
20914;SDS011;10617;52.032;5.298;2024-02-23T09:19:50;5.50;;;1.73;;
20914;SDS011;10617;52.032;5.298;2024-02-23T09:23:52;10.48;;;1.88;;
20914;SDS011;10617;52.032;5.298;2024-02-23T09:27:56;6.32;;;1.88;;
20914;SDS011;10617;52.032;5.298;2024-02-23T09:31:58;6.95;;;1.85;;
20914;SDS011;10617;52.032;5.298;2024-02-23T09:36:01;5.97;;;1.80;;
20914;SDS011;10617;52.032;5.298;2024-02-23T09:40:04;7.45;;;1.73;;
20914;SDS011;10617;52.032;5.298;2024-02-23T09:44:06;6.70;;;1.70;;
20914;SDS011;10617;52.032;5.298;2024-02-23T09:48:10;4.32;;;1.52;;
20914;SDS011;10617;52.032;5.298;2024-02-23T09:52:15;5.07;;;1.58;;
20914;SDS011;10617;52.032;5.298;2024-02-23T09:56:20;5.10;;;1.40;;
20914;SDS011;10617;52.032;5.298;2024-02-23T10:00:26;4.87;;;1.87;;
20914;SDS011;10617;52.032;5.298;2024-02-23T10:04:29;3.38;;;1.50;;
20914;SDS011;10617;52.032;5.298;2024-02-23T10:08:32;3.75;;;1.60;;
20914;SDS011;10617;52.032;5.298;2024-02-23T10:12:34;5.63;;;1.70;;
20914;SDS011;10617;52.032;5.298;2024-02-23T10:16:39;6.18;;;1.70;;
20914;SDS011;10617;52.032;5.298;2024-02-23T10:20:41;3.67;;;1.52;;
20914;SDS011;10617;52.032;5.298;2024-02-23T10:24:42;5.57;;;1.75;;
20914;SDS011;10617;52.032;5.298;2024-02-23T10:28:45;5.15;;;1.63;;
20914;SDS011;10617;52.032;5.298;2024-02-23T10:32:50;8.63;;;1.70;;
20914;SDS011;10617;52.032;5.298;2024-02-23T10:36:56;5.35;;;1.77;;
20914;SDS011;10617;52.032;5.298;2024-02-23T10:40:58;5.68;;;1.60;;
20914;SDS011;10617;52.032;5.298;2024-02-23T10:45:01;5.63;;;1.50;;
20914;SDS011;10617;52.032;5.298;2024-02-23T10:49:05;6.50;;;1.95;;
20914;SDS011;10617;52.032;5.298;2024-02-23T10:53:08;8.38;;;2.20;;
20914;SDS011;10617;52.032;5.298;2024-02-23T10:57:11;3.88;;;1.67;;
20914;SDS011;10617;52.032;5.298;2024-02-23T11:01:18;8.43;;;2.10;;
20914;SDS011;10617;52.032;5.298;2024-02-23T11:05:21;4.43;;;2.00;;
20914;SDS011;10617;52.032;5.298;2024-02-23T11:09:27;6.65;;;2.05;;
20914;SDS011;10617;52.032;5.298;2024-02-23T11:13:30;5.57;;;2.20;;
20914;SDS011;10617;52.032;5.298;2024-02-23T11:17:35;5.90;;;2.30;;
20914;SDS011;10617;52.032;5.298;2024-02-23T11:21:39;3.80;;;1.92;;
20914;SDS011;10617;52.032;5.298;2024-02-23T11:25:41;6.35;;;2.33;;
20914;SDS011;10617;52.032;5.298;2024-02-23T11:29:46;5.63;;;2.10;;
20914;SDS011;10617;52.032;5.298;2024-02-23T11:33:50;5.43;;;2.78;;
20914;SDS011;10617;52.032;5.298;2024-02-23T11:37:56;7.28;;;2.50;;
20914;SDS011;10617;52.032;5.298;2024-02-23T11:42:00;5.88;;;2.20;;
20914;SDS011;10617;52.032;5.298;2024-02-23T11:46:03;7.85;;;2.17;;
20914;SDS011;10617;52.032;5.298;2024-02-23T11:50:08;6.32;;;2.30;;
20914;SDS011;10617;52.032;5.298;2024-02-23T11:54:12;7.80;;;2.33;;
20914;SDS011;10617;52.032;5.298;2024-02-23T11:58:15;4.10;;;2.00;;
20914;SDS011;10617;52.032;5.298;2024-02-23T12:02:20;5.00;;;2.30;;
20914;SDS011;10617;52.032;5.298;2024-02-23T12:06:22;4.78;;;2.15;;
20914;SDS011;10617;52.032;5.298;2024-02-23T12:10:25;5.70;;;2.35;;
20914;SDS011;10617;52.032;5.298;2024-02-23T12:14:27;5.53;;;1.92;;
20914;SDS011;10617;52.032;5.298;2024-02-23T12:18:32;3.63;;;1.83;;
20914;SDS011;10617;52.032;5.298;2024-02-23T12:22:35;4.25;;;1.80;;
20914;SDS011;10617;52.032;5.298;2024-02-23T12:26:37;5.20;;;2.20;;
20914;SDS011;10617;52.032;5.298;2024-02-23T12:30:39;6.55;;;2.15;;
20914;SDS011;10617;52.032;5.298;2024-02-23T12:34:43;6.22;;;2.08;;
20914;SDS011;10617;52.032;5.298;2024-02-23T12:38:45;8.95;;;2.65;;
20914;SDS011;10617;52.032;5.298;2024-02-23T12:42:47;8.90;;;2.92;;
20914;SDS011;10617;52.032;5.298;2024-02-23T12:46:50;5.38;;;1.90;;
20914;SDS011;10617;52.032;5.298;2024-02-23T12:50:52;6.07;;;1.98;;
20914;SDS011;10617;52.032;5.298;2024-02-23T12:54:54;5.53;;;1.67;;
20914;SDS011;10617;52.032;5.298;2024-02-23T12:58:56;4.47;;;1.83;;
20914;SDS011;10617;52.032;5.298;2024-02-23T13:02:58;6.95;;;1.85;;
20914;SDS011;10617;52.032;5.298;2024-02-23T13:07:00;5.63;;;1.70;;
20914;SDS011;10617;52.032;5.298;2024-02-23T13:11:02;3.70;;;1.75;;
20914;SDS011;10617;52.032;5.298;2024-02-23T13:15:05;4.88;;;1.67;;
20914;SDS011;10617;52.032;5.298;2024-02-23T13:19:07;4.45;;;1.48;;
20914;SDS011;10617;52.032;5.298;2024-02-23T13:23:11;4.40;;;1.52;;
20914;SDS011;10617;52.032;5.298;2024-02-23T13:27:13;6.07;;;2.00;;
20914;SDS011;10617;52.032;5.298;2024-02-23T13:31:15;4.43;;;1.77;;
20914;SDS011;10617;52.032;5.298;2024-02-23T13:35:18;5.90;;;1.65;;
20914;SDS011;10617;52.032;5.298;2024-02-23T13:39:20;4.20;;;1.48;;
20914;SDS011;10617;52.032;5.298;2024-02-23T13:43:22;3.90;;;1.80;;
20914;SDS011;10617;52.032;5.298;2024-02-23T13:47:24;3.45;;;1.70;;
20914;SDS011;10617;52.032;5.298;2024-02-23T13:51:26;5.75;;;1.70;;
20914;SDS011;10617;52.032;5.298;2024-02-23T13:55:27;6.00;;;1.90;;
20914;SDS011;10617;52.032;5.298;2024-02-23T13:59:29;7.43;;;2.10;;
20914;SDS011;10617;52.032;5.298;2024-02-23T14:03:31;4.18;;;1.75;;
20914;SDS011;10617;52.032;5.298;2024-02-23T14:07:33;4.50;;;1.85;;
20914;SDS011;10617;52.032;5.298;2024-02-23T14:11:35;4.57;;;1.60;;
20914;SDS011;10617;52.032;5.298;2024-02-23T14:15:38;4.85;;;1.92;;
20914;SDS011;10617;52.032;5.298;2024-02-23T14:19:39;3.55;;;1.60;;
20914;SDS011;10617;52.032;5.298;2024-02-23T14:23:41;4.13;;;1.23;;
20914;SDS011;10617;52.032;5.298;2024-02-23T14:27:44;2.50;;;1.25;;
20914;SDS011;10617;52.032;5.298;2024-02-23T14:31:45;3.40;;;1.30;;
20914;SDS011;10617;52.032;5.298;2024-02-23T14:35:47;2.50;;;1.10;;
20914;SDS011;10617;52.032;5.298;2024-02-23T14:39:51;3.58;;;1.33;;
20914;SDS011;10617;52.032;5.298;2024-02-23T14:43:53;3.22;;;1.08;;
20914;SDS011;10617;52.032;5.298;2024-02-23T14:47:55;3.30;;;1.23;;
20914;SDS011;10617;52.032;5.298;2024-02-23T14:51:57;4.00;;;1.20;;
20914;SDS011;10617;52.032;5.298;2024-02-23T14:55:59;2.85;;;1.05;;
20914;SDS011;10617;52.032;5.298;2024-02-23T15:00:00;4.95;;;1.20;;
20914;SDS011;10617;52.032;5.298;2024-02-23T15:04:04;5.35;;;1.40;;
20914;SDS011;10617;52.032;5.298;2024-02-23T15:08:07;3.00;;;1.55;;
20914;SDS011;10617;52.032;5.298;2024-02-23T15:12:09;5.00;;;2.15;;
20914;SDS011;10617;52.032;5.298;2024-02-23T15:16:11;5.13;;;1.77;;
20914;SDS011;10617;52.032;5.298;2024-02-23T15:20:13;4.38;;;2.00;;
20914;SDS011;10617;52.032;5.298;2024-02-23T15:24:15;4.65;;;1.67;;
20914;SDS011;10617;52.032;5.298;2024-02-23T15:28:19;4.35;;;1.75;;
20914;SDS011;10617;52.032;5.298;2024-02-23T15:32:24;3.35;;;1.70;;
20914;SDS011;10617;52.032;5.298;2024-02-23T15:36:26;4.78;;;1.92;;
20914;SDS011;10617;52.032;5.298;2024-02-23T15:40:28;4.15;;;1.80;;
20914;SDS011;10617;52.032;5.298;2024-02-23T15:44:31;4.78;;;2.63;;
20914;SDS011;10617;52.032;5.298;2024-02-23T15:48:32;4.60;;;2.17;;
20914;SDS011;10617;52.032;5.298;2024-02-23T15:52:35;4.63;;;2.10;;
20914;SDS011;10617;52.032;5.298;2024-02-23T15:56:37;5.55;;;2.00;;
20914;SDS011;10617;52.032;5.298;2024-02-23T16:00:40;4.20;;;1.67;;
20914;SDS011;10617;52.032;5.298;2024-02-23T16:04:42;4.18;;;1.70;;
20914;SDS011;10617;52.032;5.298;2024-02-23T16:08:45;4.63;;;1.55;;
20914;SDS011;10617;52.032;5.298;2024-02-23T16:12:48;3.85;;;1.40;;
20914;SDS011;10617;52.032;5.298;2024-02-23T16:16:52;4.90;;;1.80;;
20914;SDS011;10617;52.032;5.298;2024-02-23T16:20:55;3.60;;;1.67;;
20914;SDS011;10617;52.032;5.298;2024-02-23T16:24:57;5.88;;;1.50;;
20914;SDS011;10617;52.032;5.298;2024-02-23T16:28:59;4.68;;;1.42;;
20914;SDS011;10617;52.032;5.298;2024-02-23T16:33:01;4.15;;;1.73;;
20914;SDS011;10617;52.032;5.298;2024-02-23T16:37:03;4.43;;;1.40;;
20914;SDS011;10617;52.032;5.298;2024-02-23T16:41:05;3.92;;;1.30;;
20914;SDS011;10617;52.032;5.298;2024-02-23T16:45:07;6.10;;;1.42;;
20914;SDS011;10617;52.032;5.298;2024-02-23T16:49:09;4.45;;;1.27;;
20914;SDS011;10617;52.032;5.298;2024-02-23T16:53:11;3.17;;;1.23;;
20914;SDS011;10617;52.032;5.298;2024-02-23T16:57:12;5.22;;;1.40;;
20914;SDS011;10617;52.032;5.298;2024-02-23T17:01:14;3.53;;;1.45;;
20914;SDS011;10617;52.032;5.298;2024-02-23T17:05:16;7.20;;;1.48;;
20914;SDS011;10617;52.032;5.298;2024-02-23T17:09:18;4.32;;;1.42;;
20914;SDS011;10617;52.032;5.298;2024-02-23T17:13:20;6.13;;;1.70;;
20914;SDS011;10617;52.032;5.298;2024-02-23T17:17:22;4.68;;;1.40;;
20914;SDS011;10617;52.032;5.298;2024-02-23T17:21:24;6.10;;;1.80;;
20914;SDS011;10617;52.032;5.298;2024-02-23T17:25:25;4.88;;;1.65;;
20914;SDS011;10617;52.032;5.298;2024-02-23T17:29:27;5.15;;;1.77;;
20914;SDS011;10617;52.032;5.298;2024-02-23T17:33:29;5.13;;;1.85;;
20914;SDS011;10617;52.032;5.298;2024-02-23T17:37:31;4.88;;;2.00;;
20914;SDS011;10617;52.032;5.298;2024-02-23T17:41:33;4.05;;;1.77;;
20914;SDS011;10617;52.032;5.298;2024-02-23T17:45:35;5.28;;;1.40;;
20914;SDS011;10617;52.032;5.298;2024-02-23T17:49:37;2.05;;;1.00;;
20914;SDS011;10617;52.032;5.298;2024-02-23T17:53:39;2.20;;;1.00;;
20914;SDS011;10617;52.032;5.298;2024-02-23T17:57:41;3.22;;;1.30;;
20914;SDS011;10617;52.032;5.298;2024-02-23T18:01:43;4.82;;;1.30;;
20914;SDS011;10617;52.032;5.298;2024-02-23T18:05:45;3.67;;;1.20;;
20914;SDS011;10617;52.032;5.298;2024-02-23T18:09:47;2.70;;;1.20;;
20914;SDS011;10617;52.032;5.298;2024-02-23T18:13:48;2.97;;;1.20;;
20914;SDS011;10617;52.032;5.298;2024-02-23T18:17:50;3.03;;;1.40;;
20914;SDS011;10617;52.032;5.298;2024-02-23T18:21:53;3.47;;;1.00;;
20914;SDS011;10617;52.032;5.298;2024-02-23T18:25:55;4.45;;;1.10;;
20914;SDS011;10617;52.032;5.298;2024-02-23T18:29:56;2.60;;;1.10;;
20914;SDS011;10617;52.032;5.298;2024-02-23T18:33:58;2.33;;;1.10;;
20914;SDS011;10617;52.032;5.298;2024-02-23T18:38:00;2.45;;;1.10;;
20914;SDS011;10617;52.032;5.298;2024-02-23T18:42:02;3.65;;;1.30;;
20914;SDS011;10617;52.032;5.298;2024-02-23T18:46:05;4.32;;;1.50;;
20914;SDS011;10617;52.032;5.298;2024-02-23T18:50:07;3.45;;;1.55;;
20914;SDS011;10617;52.032;5.298;2024-02-23T18:54:09;3.20;;;1.42;;
20914;SDS011;10617;52.032;5.298;2024-02-23T18:58:11;3.88;;;1.50;;
20914;SDS011;10617;52.032;5.298;2024-02-23T19:02:13;5.20;;;1.85;;
20914;SDS011;10617;52.032;5.298;2024-02-23T19:06:15;3.60;;;1.67;;
20914;SDS011;10617;52.032;5.298;2024-02-23T19:10:18;4.10;;;1.52;;
20914;SDS011;10617;52.032;5.298;2024-02-23T19:14:19;3.65;;;1.73;;
20914;SDS011;10617;52.032;5.298;2024-02-23T19:18:21;3.83;;;1.75;;
20914;SDS011;10617;52.032;5.298;2024-02-23T19:22:25;3.28;;;1.63;;
20914;SDS011;10617;52.032;5.298;2024-02-23T19:26:28;4.03;;;1.40;;
20914;SDS011;10617;52.032;5.298;2024-02-23T19:30:30;3.38;;;1.50;;
20914;SDS011;10617;52.032;5.298;2024-02-23T19:34:31;4.13;;;1.60;;
20914;SDS011;10617;52.032;5.298;2024-02-23T19:38:33;3.75;;;1.58;;
20914;SDS011;10617;52.032;5.298;2024-02-23T19:42:35;4.55;;;1.50;;
20914;SDS011;10617;52.032;5.298;2024-02-23T19:46:38;4.07;;;2.00;;
20914;SDS011;10617;52.032;5.298;2024-02-23T19:50:40;4.05;;;1.88;;
20914;SDS011;10617;52.032;5.298;2024-02-23T19:54:42;6.38;;;1.90;;
20914;SDS011;10617;52.032;5.298;2024-02-23T19:58:47;4.22;;;2.00;;
20914;SDS011;10617;52.032;5.298;2024-02-23T20:02:49;5.43;;;2.22;;
20914;SDS011;10617;52.032;5.298;2024-02-23T20:06:55;3.97;;;2.10;;
20914;SDS011;10617;52.032;5.298;2024-02-23T20:10:57;4.95;;;2.22;;
20914;SDS011;10617;52.032;5.298;2024-02-23T20:15:01;4.82;;;2.58;;
20914;SDS011;10617;52.032;5.298;2024-02-23T20:19:04;5.68;;;3.05;;
20914;SDS011;10617;52.032;5.298;2024-02-23T20:23:06;4.60;;;2.67;;
20914;SDS011;10617;52.032;5.298;2024-02-23T20:27:08;5.00;;;3.47;;
20914;SDS011;10617;52.032;5.298;2024-02-23T20:31:10;5.95;;;3.42;;
20914;SDS011;10617;52.032;5.298;2024-02-23T20:35:12;6.90;;;3.17;;
20914;SDS011;10617;52.032;5.298;2024-02-23T20:39:13;6.32;;;3.70;;
20914;SDS011;10617;52.032;5.298;2024-02-23T20:43:16;6.15;;;3.95;;
20914;SDS011;10617;52.032;5.298;2024-02-23T20:47:18;6.85;;;4.18;;
20914;SDS011;10617;52.032;5.298;2024-02-23T20:51:23;6.55;;;3.65;;
20914;SDS011;10617;52.032;5.298;2024-02-23T20:55:24;5.60;;;3.53;;
20914;SDS011;10617;52.032;5.298;2024-02-23T20:59:26;6.78;;;3.92;;
20914;SDS011;10617;52.032;5.298;2024-02-23T21:03:28;6.85;;;4.18;;
20914;SDS011;10617;52.032;5.298;2024-02-23T21:07:30;5.57;;;4.00;;
20914;SDS011;10617;52.032;5.298;2024-02-23T21:11:32;8.38;;;4.25;;
20914;SDS011;10617;52.032;5.298;2024-02-23T21:15:34;6.93;;;3.83;;
20914;SDS011;10617;52.032;5.298;2024-02-23T21:19:38;6.20;;;4.15;;
20914;SDS011;10617;52.032;5.298;2024-02-23T21:23:40;7.20;;;3.75;;
20914;SDS011;10617;52.032;5.298;2024-02-23T21:27:43;4.93;;;2.28;;
20914;SDS011;10617;52.032;5.298;2024-02-23T21:31:45;6.75;;;3.20;;
20914;SDS011;10617;52.032;5.298;2024-02-23T21:35:46;6.03;;;3.17;;
20914;SDS011;10617;52.032;5.298;2024-02-23T21:39:48;5.30;;;2.75;;
20914;SDS011;10617;52.032;5.298;2024-02-23T21:43:52;5.68;;;2.78;;
20914;SDS011;10617;52.032;5.298;2024-02-23T21:47:54;4.93;;;2.60;;
20914;SDS011;10617;52.032;5.298;2024-02-23T21:51:56;4.35;;;2.22;;
20914;SDS011;10617;52.032;5.298;2024-02-23T21:56:04;4.45;;;2.10;;
20914;SDS011;10617;52.032;5.298;2024-02-23T22:00:06;4.28;;;1.90;;
20914;SDS011;10617;52.032;5.298;2024-02-23T22:04:09;3.60;;;1.60;;
20914;SDS011;10617;52.032;5.298;2024-02-23T22:08:10;3.08;;;1.40;;
20914;SDS011;10617;52.032;5.298;2024-02-23T22:12:12;3.30;;;1.52;;
20914;SDS011;10617;52.032;5.298;2024-02-23T22:16:14;4.40;;;1.65;;
20914;SDS011;10617;52.032;5.298;2024-02-23T22:20:16;3.72;;;1.73;;
20914;SDS011;10617;52.032;5.298;2024-02-23T22:24:18;5.10;;;1.80;;
20914;SDS011;10617;52.032;5.298;2024-02-23T22:28:20;3.88;;;1.80;;
20914;SDS011;10617;52.032;5.298;2024-02-23T22:32:22;3.40;;;1.55;;
20914;SDS011;10617;52.032;5.298;2024-02-23T22:36:27;3.45;;;1.70;;
20914;SDS011;10617;52.032;5.298;2024-02-23T22:40:29;4.00;;;1.90;;
20914;SDS011;10617;52.032;5.298;2024-02-23T22:44:31;5.18;;;1.90;;
20914;SDS011;10617;52.032;5.298;2024-02-23T22:48:33;3.88;;;1.85;;
20914;SDS011;10617;52.032;5.298;2024-02-23T22:52:35;4.80;;;2.00;;
20914;SDS011;10617;52.032;5.298;2024-02-23T22:56:36;4.55;;;2.38;;
20914;SDS011;10617;52.032;5.298;2024-02-23T23:00:38;4.57;;;2.40;;
20914;SDS011;10617;52.032;5.298;2024-02-23T23:04:42;4.80;;;2.63;;
20914;SDS011;10617;52.032;5.298;2024-02-23T23:08:45;4.38;;;2.50;;
20914;SDS011;10617;52.032;5.298;2024-02-23T23:12:46;4.43;;;2.20;;
20914;SDS011;10617;52.032;5.298;2024-02-23T23:16:48;4.82;;;2.80;;
20914;SDS011;10617;52.032;5.298;2024-02-23T23:20:50;4.53;;;2.47;;
20914;SDS011;10617;52.032;5.298;2024-02-23T23:24:52;5.40;;;2.65;;
20914;SDS011;10617;52.032;5.298;2024-02-23T23:28:54;5.78;;;2.58;;
20914;SDS011;10617;52.032;5.298;2024-02-23T23:32:56;5.68;;;3.10;;
20914;SDS011;10617;52.032;5.298;2024-02-23T23:36:58;5.07;;;2.67;;
20914;SDS011;10617;52.032;5.298;2024-02-23T23:40:59;4.65;;;2.25;;
20914;SDS011;10617;52.032;5.298;2024-02-23T23:45:01;4.00;;;2.20;;
20914;SDS011;10617;52.032;5.298;2024-02-23T23:49:04;6.40;;;2.67;;
20914;SDS011;10617;52.032;5.298;2024-02-23T23:53:05;4.18;;;2.10;;
20914;SDS011;10617;52.032;5.298;2024-02-23T23:57:07;4.43;;;2.17;;
